Time;durP1;ratioP1;P1;durP2;ratioP2;P2;SDS_P1;SDS_P2;PMS_P1;PMS_P2;Temp;Humidity;BMP_temperature;BMP_pressure;BME280_temperature;BME280_humidity;BME280_pressure;Samples;Min_cycle;Max_cycle;Signal;HPM_P1;HPM_P2
2022/04/04 00:02:04;;;;;;;5.50;2.78;;;2.70;99.90;;;;;;5076079;28;20056;-62
2022/04/04 00:04:31;;;;;;;5.15;3.15;;;2.70;99.90;;;;;;5094614;28;20504;-62
2022/04/04 00:06:59;;;;;;;4.35;2.97;;;2.70;99.90;;;;;;5075786;28;20097;-66
2022/04/04 00:09:26;;;;;;;5.03;2.65;;;2.70;99.90;;;;;;5094406;28;20515;-65
2022/04/04 00:11:53;;;;;;;4.57;2.85;;;2.70;99.90;;;;;;5076764;28;20060;-63
2022/04/04 00:14:20;;;;;;;6.25;2.83;;;2.70;99.90;;;;;;5075870;28;20052;-63
2022/04/04 00:16:47;;;;;;;7.15;3.08;;;2.70;99.90;;;;;;5094369;28;20140;-62
2022/04/04 00:19:15;;;;;;;4.75;3.13;;;2.70;99.90;;;;;;5075644;28;20416;-63
2022/04/04 00:21:44;;;;;;;6.43;3.13;;;2.70;99.90;;;;;;5093872;28;20052;-62
2022/04/04 00:24:11;;;;;;;4.50;2.90;;;2.70;99.90;;;;;;5094366;28;20541;-62
2022/04/04 00:26:38;;;;;;;9.25;3.35;;;2.70;99.90;;;;;;5075989;28;20052;-62
2022/04/04 00:29:05;;;;;;;6.93;3.47;;;2.70;99.90;;;;;;5075464;28;20056;-62
2022/04/04 00:31:32;;;;;;;4.93;3.20;;;2.70;99.90;;;;;;5076380;28;20052;-62
2022/04/04 00:33:59;;;;;;;5.07;2.90;;;2.70;99.90;;;;;;5094312;28;20469;-62
2022/04/04 00:36:27;;;;;;;6.57;3.08;;;2.70;99.90;;;;;;5093448;28;20056;-62
2022/04/04 00:38:54;;;;;;;4.45;2.78;;;2.70;99.90;;;;;;5075999;28;20056;-62
2022/04/04 00:41:21;;;;;;;5.10;2.95;;;2.80;99.90;;;;;;5094284;28;20056;-63
2022/04/04 00:43:52;;;;;;;4.80;2.80;;;2.80;99.90;;;;;;5093849;28;20087;-62
2022/04/04 00:46:19;;;;;;;5.68;2.70;;;2.80;99.90;;;;;;5072378;28;20110;-62
2022/04/04 00:48:46;;;;;;;7.28;3.33;;;2.90;99.90;;;;;;5085160;28;20044;-62
2022/04/04 00:51:13;;;;;;;6.35;3.10;;;2.90;99.90;;;;;;5075029;28;20055;-63
2022/04/04 00:53:42;;;;;;;4.68;2.80;;;2.90;99.90;;;;;;5093790;28;20055;-62
2022/04/04 00:56:11;;;;;;;5.30;3.10;;;3.00;99.90;;;;;;5075057;28;20109;-62
2022/04/04 00:58:39;;;;;;;5.53;3.33;;;3.00;99.90;;;;;;5093825;28;20055;-62
2022/04/04 01:01:06;;;;;;;9.00;2.58;;;3.00;99.90;;;;;;5093491;28;20055;-63
2022/04/04 01:03:33;;;;;;;6.05;3.13;;;3.00;99.90;;;;;;5074932;28;20430;-62
2022/04/04 01:06:00;;;;;;;4.75;2.90;;;3.00;99.90;;;;;;5075466;28;20105;-62
2022/04/04 01:08:27;;;;;;;5.50;3.33;;;3.10;99.90;;;;;;5093627;28;20102;-62
2022/04/04 01:10:55;;;;;;;5.55;3.40;;;3.10;99.90;;;;;;5074753;28;20059;-63
2022/04/04 01:13:23;;;;;;;8.07;3.55;;;3.20;99.90;;;;;;5074859;28;20056;-63
2022/04/04 01:15:49;;;;;;;5.50;3.60;;;3.20;99.90;;;;;;5093133;28;20074;-63
2022/04/04 01:18:16;;;;;;;6.35;4.05;;;3.30;99.90;;;;;;5092295;28;20051;-62
2022/04/04 01:20:43;;;;;;;10.95;4.80;;;3.40;99.90;;;;;;5075491;28;20064;-63
2022/04/04 01:23:13;;;;;;;11.52;4.82;;;3.40;99.90;;;;;;5093742;28;20067;-62
2022/04/04 01:25:42;;;;;;;8.40;5.25;;;3.40;99.90;;;;;;5092485;28;20130;-62
2022/04/04 01:28:08;;;;;;;8.27;5.15;;;3.50;99.90;;;;;;5093221;28;20121;-63
2022/04/04 01:30:35;;;;;;;8.57;5.18;;;3.50;99.90;;;;;;5074483;28;20044;-63
2022/04/04 01:33:02;;;;;;;8.75;5.55;;;3.60;99.90;;;;;;5092266;28;20048;-63
2022/04/04 01:35:29;;;;;;;9.35;5.18;;;3.60;99.90;;;;;;5092809;28;20068;-62
2022/04/04 01:37:56;;;;;;;8.05;5.53;;;3.60;99.90;;;;;;5074723;28;20139;-62
2022/04/04 01:40:23;;;;;;;8.48;5.88;;;3.60;99.90;;;;;;5074431;28;20059;-63
2022/04/04 01:42:54;;;;;;;7.85;5.53;;;3.70;99.90;;;;;;5075203;28;20052;-63
2022/04/04 01:46:23;;;;;;;11.73;6.90;;;3.70;99.90;;;;;;5073878;28;20503;-63
2022/04/04 01:48:09;;;;;;;12.13;6.00;;;3.70;99.90;;;;;;5092575;28;20058;-62
2022/04/04 01:50:37;;;;;;;10.63;6.55;;;3.80;99.90;;;;;;5093083;28;20120;-63
2022/04/04 01:55:49;;;;;;;11.15;6.90;;;3.80;99.90;;;;;;5092292;28;20052;-62
2022/04/04 01:58:17;;;;;;;11.60;7.13;;;3.90;99.90;;;;;;5074275;28;20467;-63
2022/04/04 02:00:44;;;;;;;13.95;8.23;;;3.90;99.90;;;;;;5092151;28;20056;-63
2022/04/04 02:03:11;;;;;;;13.40;8.05;;;4.00;99.90;;;;;;5093002;28;20385;-63
2022/04/04 02:05:38;;;;;;;14.90;8.30;;;4.00;99.90;;;;;;5092825;28;20461;-63
2022/04/04 02:08:06;;;;;;;13.75;9.55;;;4.00;99.90;;;;;;5091992;28;20076;-63
2022/04/04 02:10:33;;;;;;;19.23;9.63;;;4.00;99.90;;;;;;5092738;28;20131;-63
2022/04/04 02:13:00;;;;;;;16.10;10.15;;;4.10;99.90;;;;;;5074670;28;20060;-63
2022/04/04 02:15:28;;;;;;;14.25;9.23;;;4.10;99.90;;;;;;5092225;28;20109;-63
2022/04/04 02:17:55;;;;;;;13.90;9.07;;;4.10;99.90;;;;;;5092498;28;20134;-63
2022/04/04 02:20:22;;;;;;;13.98;9.52;;;4.20;99.90;;;;;;5092372;28;20052;-63
2022/04/04 02:22:49;;;;;;;13.50;9.27;;;4.10;99.90;;;;;;5073725;28;20105;-62
2022/04/04 02:25:17;;;;;;;16.98;8.95;;;4.20;99.90;;;;;;5074026;28;20135;-63
2022/04/04 02:27:44;;;;;;;14.43;8.85;;;4.10;99.90;;;;;;5071350;28;20057;-63
2022/04/04 02:30:12;;;;;;;16.50;8.45;;;4.70;99.90;;;;;;5053927;28;20056;-62
2022/04/04 02:32:40;;;;;;;15.02;8.93;;;4.10;99.90;;;;;;5053993;28;20052;-62
2022/04/04 02:35:08;;;;;;;14.93;9.40;;;4.10;99.90;;;;;;5053634;28;20083;-63
2022/04/04 02:37:35;;;;;;;14.20;9.35;;;4.10;99.90;;;;;;5071772;28;20061;-62
2022/04/04 02:40:04;;;;;;;13.95;8.63;;;4.10;99.90;;;;;;5072570;28;20128;-62
2022/04/04 02:42:31;;;;;;;10.77;8.30;;;4.10;99.90;;;;;;5093221;28;20495;-63
2022/04/04 02:44:58;;;;;;;17.50;9.27;;;4.10;99.90;;;;;;5077880;28;20476;-62
2022/04/04 02:47:25;;;;;;;15.82;9.48;;;4.10;99.90;;;;;;5096038;28;20056;-63
2022/04/04 02:49:53;;;;;;;14.07;10.05;;;4.10;99.90;;;;;;5095152;28;20055;-63
2022/04/04 02:52:20;;;;;;;13.45;9.52;;;4.10;99.90;;;;;;5078006;28;20101;-63
2022/04/04 02:54:47;;;;;;;15.57;9.07;;;4.20;99.90;;;;;;5078241;28;20449;-63
2022/04/04 02:57:14;;;;;;;14.38;9.45;;;4.20;99.90;;;;;;5077383;28;20506;-63
2022/04/04 02:59:41;;;;;;;15.98;10.02;;;4.20;99.90;;;;;;5077661;28;20058;-63
2022/04/04 03:02:07;;;;;;;16.00;10.13;;;4.20;99.90;;;;;;5077905;28;20081;-63
2022/04/04 03:04:35;;;;;;;17.08;10.55;;;4.20;99.90;;;;;;5077084;28;20055;-63
2022/04/04 03:07:04;;;;;;;15.50;10.32;;;4.20;99.90;;;;;;5078024;28;20056;-63
2022/04/04 03:09:30;;;;;;;18.20;10.20;;;4.30;99.90;;;;;;5077797;28;20560;-64
2022/04/04 03:11:57;;;;;;;13.13;9.13;;;4.30;99.90;;;;;;5076702;28;20094;-66
2022/04/04 03:14:24;;;;;;;15.80;10.30;;;4.30;99.90;;;;;;5095679;28;20101;-63
2022/04/04 03:16:51;;;;;;;16.95;10.43;;;4.30;99.90;;;;;;5094607;28;20079;-63
2022/04/04 03:19:18;;;;;;;14.05;9.93;;;4.40;99.90;;;;;;5076955;28;20048;-63
2022/04/04 03:21:45;;;;;;;16.23;9.50;;;4.40;99.90;;;;;;5077555;28;20057;-62
2022/04/04 03:24:14;;;;;;;16.83;11.02;;;4.40;99.90;;;;;;5076803;28;20048;-63
2022/04/04 03:26:41;;;;;;;18.95;9.73;;;4.50;99.90;;;;;;5076964;28;20555;-62
2022/04/04 03:29:08;;;;;;;18.58;10.93;;;4.50;99.90;;;;;;5095398;28;20048;-62
2022/04/04 03:31:35;;;;;;;15.38;9.63;;;4.50;99.90;;;;;;5094494;28;20056;-62
2022/04/04 03:34:03;;;;;;;15.50;9.57;;;4.50;99.90;;;;;;5095486;28;20097;-63
2022/04/04 03:36:30;;;;;;;20.73;10.93;;;4.50;99.90;;;;;;5094778;28;20101;-63
2022/04/04 03:38:57;;;;;;;15.82;9.55;;;4.50;99.90;;;;;;5076172;28;20051;-63
2022/04/04 03:41:25;;;;;;;16.48;9.88;;;4.60;99.90;;;;;;5077276;28;20407;-62
2022/04/04 03:43:52;;;;;;;21.20;10.95;;;4.60;99.90;;;;;;5095024;28;20434;-62
2022/04/04 03:46:19;;;;;;;20.50;11.73;;;4.60;99.90;;;;;;5093827;28;20044;-62
2022/04/04 03:48:46;;;;;;;16.45;11.20;;;4.60;99.90;;;;;;5094956;28;20063;-62
2022/04/04 03:51:13;;;;;;;17.35;11.60;;;4.50;99.90;;;;;;5094880;28;20121;-63
2022/04/04 03:53:40;;;;;;;18.92;11.57;;;4.60;99.90;;;;;;5075101;28;20074;-62
2022/04/04 03:56:07;;;;;;;21.58;11.70;;;4.50;99.90;;;;;;5094960;28;20048;-63
2022/04/04 03:58:36;;;;;;;21.13;11.07;;;4.50;99.90;;;;;;5076638;28;20055;-62
2022/04/04 04:01:03;;;;;;;16.90;11.80;;;4.50;99.90;;;;;;5094464;28;20044;-62
2022/04/04 04:03:31;;;;;;;22.45;11.95;;;4.50;99.90;;;;;;5094769;28;20052;-62
2022/04/04 04:06:11;;;;;;;17.35;11.48;;;4.40;99.90;;;;;;5094516;28;20055;-63
2022/04/04 04:08:39;;;;;;;19.73;10.98;;;4.50;99.90;;;;;;5076298;28;20052;-63
2022/04/04 04:11:06;;;;;;;19.83;11.45;;;4.40;99.90;;;;;;5094395;28;20396;-63
2022/04/04 04:13:33;;;;;;;21.75;12.55;;;4.40;99.90;;;;;;5075562;28;20105;-63
2022/04/04 04:16:03;;;;;;;21.83;13.13;;;4.40;99.90;;;;;;5076456;28;20068;-63
2022/04/04 04:18:30;;;;;;;20.35;12.15;;;4.40;99.90;;;;;;5094505;28;20063;-62
2022/04/04 04:20:57;;;;;;;22.83;11.85;;;4.50;99.90;;;;;;5075414;28;20048;-62
2022/04/04 04:23:24;;;;;;;21.17;13.23;;;4.40;99.90;;;;;;5093946;28;20056;-62
2022/04/04 04:25:51;;;;;;;20.58;12.27;;;4.50;99.90;;;;;;5076192;28;20051;-62
2022/04/04 04:28:19;;;;;;;19.42;13.25;;;4.50;99.90;;;;;;5075164;28;20055;-62
2022/04/04 04:30:46;;;;;;;19.58;12.50;;;4.50;99.90;;;;;;5076097;28;20084;-62
2022/04/04 04:33:14;;;;;;;24.15;14.40;;;4.60;99.90;;;;;;5093726;28;20051;-62
2022/04/04 04:35:42;;;;;;;22.70;14.40;;;4.60;99.90;;;;;;5093342;28;20048;-62
2022/04/04 04:38:08;;;;;;;24.17;14.10;;;4.60;99.90;;;;;;5093951;28;20056;-62
2022/04/04 04:40:36;;;;;;;24.33;13.60;;;4.70;99.90;;;;;;5093663;28;20044;-62
2022/04/04 04:43:03;;;;;;;19.13;12.25;;;4.70;99.90;;;;;;5093432;28;20048;-62
2022/04/04 04:45:30;;;;;;;21.30;13.45;;;4.70;99.90;;;;;;5094040;28;20097;-63
2022/04/04 04:47:57;;;;;;;20.33;12.88;;;4.70;99.90;;;;;;5093900;28;20124;-62
2022/04/04 04:50:26;;;;;;;17.65;12.05;;;4.70;99.90;;;;;;5093398;28;20044;-62
2022/04/04 04:52:53;;;;;;;18.20;11.10;;;4.70;99.90;;;;;;5093823;28;20047;-63
2022/04/04 04:55:21;;;;;;;17.77;11.88;;;4.80;99.90;;;;;;5093141;28;20059;-62
2022/04/04 04:57:49;;;;;;;20.15;12.65;;;4.80;99.90;;;;;;5093955;28;20105;-64
2022/04/04 05:00:18;;;;;;;19.10;11.63;;;4.70;99.90;;;;;;5073988;28;20041;-64
2022/04/04 05:02:45;;;;;;;18.45;12.02;;;4.70;99.90;;;;;;5083065;28;20354;-64
2022/04/04 05:05:12;;;;;;;21.23;13.10;;;4.70;99.90;;;;;;5082312;28;20462;-62
2022/04/04 05:07:40;;;;;;;21.60;13.10;;;4.70;99.90;;;;;;5073505;28;20491;-61
2022/04/04 05:10:08;;;;;;;18.00;12.07;;;4.70;99.90;;;;;;5070880;28;20052;-62
2022/04/04 05:12:35;;;;;;;19.50;11.57;;;4.70;99.90;;;;;;5082718;28;20058;-62
2022/04/04 05:15:02;;;;;;;18.70;10.85;;;4.80;99.90;;;;;;5065542;28;20139;-62
2022/04/04 05:17:29;;;;;;;19.70;10.45;;;4.70;99.90;;;;;;5090325;28;20498;-62
2022/04/04 05:19:56;;;;;;;17.92;10.63;;;4.70;99.90;;;;;;5062366;28;20090;-62
2022/04/04 05:22:23;;;;;;;18.42;8.88;;;4.70;99.90;;;;;;5063656;28;20326;-62
2022/04/04 05:24:51;;;;;;;16.40;9.93;;;4.70;99.90;;;;;;5063472;28;20437;-62
2022/04/04 05:27:18;;;;;;;14.20;9.13;;;4.70;99.90;;;;;;5071244;28;20052;-63
2022/04/04 05:29:45;;;;;;;12.35;9.05;;;4.70;99.90;;;;;;5086033;28;20515;-63
2022/04/04 05:32:12;;;;;;;16.27;8.68;;;4.70;99.90;;;;;;5089943;28;20044;-63
2022/04/04 05:34:38;;;;;;;12.90;9.55;;;4.70;99.90;;;;;;5085695;28;20059;-62
2022/04/04 05:37:06;;;;;;;13.60;8.77;;;4.70;99.90;;;;;;5087373;28;20044;-61
2022/04/04 05:39:32;;;;;;;14.95;8.63;;;4.70;99.90;;;;;;5067223;28;20048;-62
2022/04/04 05:42:01;;;;;;;13.70;9.07;;;4.70;99.90;;;;;;5065225;28;20512;-63
2022/04/04 05:44:28;;;;;;;13.27;8.43;;;4.70;99.90;;;;;;5086778;28;20049;-62
2022/04/04 05:46:55;;;;;;;14.25;7.78;;;4.60;99.90;;;;;;5068154;28;20399;-63
2022/04/04 05:49:23;;;;;;;12.43;8.10;;;4.60;99.90;;;;;;5065627;28;20048;-63
2022/04/04 05:51:51;;;;;;;14.25;8.45;;;4.60;99.90;;;;;;5084248;28;20452;-63
2022/04/04 05:54:18;;;;;;;14.90;8.13;;;4.60;99.90;;;;;;5064408;28;20052;-63
2022/04/04 05:56:45;;;;;;;13.43;7.68;;;4.60;99.90;;;;;;5084132;28;20044;-62
2022/04/04 05:59:14;;;;;;;11.70;7.50;;;4.60;99.90;;;;;;5086800;28;20044;-63
2022/04/04 06:01:41;;;;;;;11.45;8.07;;;4.50;99.90;;;;;;5084229;28;20060;-64
2022/04/04 06:04:08;;;;;;;10.27;5.82;;;4.50;99.90;;;;;;5065988;28;20110;-63
2022/04/04 06:06:35;;;;;;;10.15;5.38;;;4.50;99.90;;;;;;5085251;28;20154;-62
2022/04/04 06:09:02;;;;;;;9.63;4.90;;;4.40;99.90;;;;;;5061557;28;20084;-64
2022/04/04 06:11:29;;;;;;;8.77;5.95;;;4.40;99.90;;;;;;5081992;28;20052;-64
2022/04/04 06:13:57;;;;;;;7.82;4.68;;;4.40;99.90;;;;;;5069035;28;20052;-65
2022/04/04 06:16:25;;;;;;;7.82;4.22;;;4.30;99.90;;;;;;5082768;28;20059;-63
2022/04/04 06:18:53;;;;;;;8.60;4.10;;;4.20;99.90;;;;;;5067135;28;20087;-63
2022/04/04 06:21:19;;;;;;;8.05;4.15;;;4.20;99.90;;;;;;5086832;28;20052;-63
2022/04/04 06:23:46;;;;;;;7.10;3.50;;;4.20;99.90;;;;;;5062362;28;20048;-63
2022/04/04 06:26:13;;;;;;;5.88;3.30;;;4.20;99.90;;;;;;5086615;28;20040;-63
2022/04/04 06:28:40;;;;;;;7.90;3.80;;;4.20;99.90;;;;;;5076403;28;20068;-63
2022/04/04 06:31:07;;;;;;;6.35;3.60;;;4.20;99.90;;;;;;5057666;28;20443;-63
2022/04/04 06:33:35;;;;;;;8.57;3.88;;;4.20;99.90;;;;;;5075329;28;20446;-63
2022/04/04 06:36:02;;;;;;;7.28;3.65;;;4.20;99.90;;;;;;5057157;28;20122;-64
2022/04/04 06:38:29;;;;;;;4.90;3.53;;;4.20;99.90;;;;;;5057521;28;20044;-62
2022/04/04 06:40:56;;;;;;;7.10;4.90;;;4.20;99.90;;;;;;5073814;28;20048;-64
2022/04/04 06:43:23;;;;;;;4.75;3.22;;;4.20;99.90;;;;;;5058309;28;20064;-63
2022/04/04 06:45:50;;;;;;;7.60;4.20;;;4.30;99.90;;;;;;5080395;28;20447;-61
2022/04/04 06:48:17;;;;;;;7.85;3.55;;;4.20;99.90;;;;;;5060132;28;20060;-62
2022/04/04 06:50:45;;;;;;;6.82;3.92;;;4.20;99.90;;;;;;5067454;28;20055;-62
2022/04/04 06:53:12;;;;;;;8.23;3.85;;;4.30;99.90;;;;;;5084174;28;20049;-62
2022/04/04 06:55:39;;;;;;;6.10;4.07;;;4.30;99.90;;;;;;5081254;28;20446;-62
2022/04/04 06:58:07;;;;;;;6.68;3.45;;;4.30;99.90;;;;;;5073492;28;20098;-61
2022/04/04 07:00:34;;;;;;;7.40;4.20;;;4.30;99.90;;;;;;5055740;28;20049;-62
2022/04/04 07:03:01;;;;;;;7.45;4.00;;;4.40;99.90;;;;;;5060025;28;20056;-62
2022/04/04 07:05:29;;;;;;;8.75;4.03;;;4.40;99.90;;;;;;5073786;28;20045;-62
2022/04/04 07:07:57;;;;;;;8.52;4.40;;;4.40;99.90;;;;;;5071945;28;20426;-62
2022/04/04 07:10:24;;;;;;;10.85;4.68;;;4.40;99.90;;;;;;5055997;28;20240;-62
2022/04/04 07:12:51;;;;;;;9.90;5.05;;;4.50;99.90;;;;;;5064513;28;20117;-62
2022/04/04 07:15:18;;;;;;;8.60;6.38;;;4.50;99.90;;;;;;5063020;28;20098;-62
2022/04/04 07:17:45;;;;;;;9.90;5.57;;;4.60;99.90;;;;;;5061540;28;20048;-62
2022/04/04 07:20:13;;;;;;;8.88;6.10;;;4.70;99.90;;;;;;5076148;28;20097;-62
2022/04/04 07:22:42;;;;;;;10.15;6.45;;;4.70;99.90;;;;;;5063410;28;20056;-62
2022/04/04 07:25:11;;;;;;;13.45;7.20;;;4.80;99.90;;;;;;5072629;28;20121;-62
2022/04/04 07:27:40;;;;;;;12.63;7.80;;;4.70;99.90;;;;;;5076754;28;20332;-62
2022/04/04 07:30:09;;;;;;;13.13;6.65;;;4.70;99.90;;;;;;5063773;28;20095;-62
2022/04/04 07:32:36;;;;;;;10.60;6.97;;;4.80;99.90;;;;;;5059664;28;20130;-62
2022/04/04 07:35:03;;;;;;;13.07;7.45;;;4.80;99.90;;;;;;5059672;28;20091;-62
2022/04/04 07:37:30;;;;;;;14.02;7.75;;;4.80;99.90;;;;;;5073192;28;20124;-62
2022/04/04 07:39:58;;;;;;;12.10;7.25;;;4.90;99.90;;;;;;5067750;28;20048;-63
2022/04/04 07:42:26;;;;;;;12.57;7.60;;;4.90;99.90;;;;;;5066337;28;20052;-62
2022/04/04 07:44:53;;;;;;;11.73;7.78;;;5.00;99.90;;;;;;5084921;28;20048;-63
2022/04/04 07:47:20;;;;;;;13.48;7.32;;;5.00;99.90;;;;;;5073167;28;20052;-63
2022/04/04 07:49:47;;;;;;;11.60;7.57;;;5.00;99.90;;;;;;5075152;28;20132;-63
2022/04/04 07:52:14;;;;;;;10.63;6.97;;;5.00;99.90;;;;;;5070953;28;20097;-63
2022/04/04 07:54:41;;;;;;;13.25;7.55;;;5.10;99.90;;;;;;5090801;28;20101;-63
2022/04/04 07:57:08;;;;;;;11.43;7.10;;;5.10;99.90;;;;;;5071919;28;20561;-63
2022/04/04 07:59:36;;;;;;;11.70;7.22;;;5.10;99.90;;;;;;5054374;28;20530;-63
2022/04/04 08:02:03;;;;;;;10.00;7.18;;;5.20;99.90;;;;;;5072455;28;20052;-62
2022/04/04 08:04:30;;;;;;;10.35;6.75;;;5.20;99.90;;;;;;5055774;28;20447;-63
2022/04/04 08:06:57;;;;;;;11.50;6.43;;;5.20;99.90;;;;;;5072243;28;20454;-63
2022/04/04 08:09:24;;;;;;;14.13;6.95;;;5.20;99.90;;;;;;5054957;28;20455;-63
2022/04/04 08:11:52;;;;;;;10.77;6.47;;;5.30;99.90;;;;;;5053831;28;20561;-63
2022/04/04 08:14:19;;;;;;;9.27;6.45;;;5.30;99.90;;;;;;5072701;28;20052;-63
2022/04/04 08:16:48;;;;;;;12.25;7.00;;;5.30;99.90;;;;;;5093290;28;20176;-63
2022/04/04 08:19:15;;;;;;;9.48;6.28;;;5.40;99.90;;;;;;5070331;28;20056;-63
2022/04/04 08:21:42;;;;;;;10.52;5.07;;;5.40;99.90;;;;;;5053708;28;20052;-63
2022/04/04 08:24:09;;;;;;;11.10;6.10;;;5.40;99.90;;;;;;5067821;28;20554;-63
2022/04/04 08:26:37;;;;;;;10.85;6.45;;;5.40;99.90;;;;;;5072650;28;20084;-63
2022/04/04 08:29:04;;;;;;;9.50;5.63;;;5.40;99.90;;;;;;5072157;28;20561;-63
2022/04/04 08:31:31;;;;;;;9.23;5.15;;;5.50;99.90;;;;;;5069787;28;20416;-63
2022/04/04 08:33:59;;;;;;;7.78;4.85;;;5.50;99.90;;;;;;5072447;28;20114;-63
2022/04/04 08:36:26;;;;;;;7.05;4.38;;;5.50;99.90;;;;;;5058829;28;20102;-63
2022/04/04 08:38:53;;;;;;;7.93;4.40;;;5.60;99.90;;;;;;5072309;28;20048;-63
2022/04/04 08:41:22;;;;;;;7.57;4.40;;;5.70;99.90;;;;;;5066185;28;20094;-64
2022/04/04 08:43:50;;;;;;;7.05;4.88;;;5.60;99.90;;;;;;5057386;28;20466;-64
2022/04/04 08:46:17;;;;;;;6.28;4.05;;;5.60;99.90;;;;;;5061636;28;20051;-64
2022/04/04 08:48:45;;;;;;;8.00;4.18;;;5.70;99.90;;;;;;5072877;28;20051;-64
2022/04/04 08:51:14;;;;;;;5.80;3.40;;;5.70;99.90;;;;;;5063278;28;20488;-64
2022/04/04 08:53:41;;;;;;;8.93;3.83;;;5.70;99.90;;;;;;5056555;28;20091;-64
2022/04/04 08:56:11;;;;;;;8.27;3.75;;;5.80;99.90;;;;;;5053636;28;20083;-64
2022/04/04 08:58:38;;;;;;;5.32;3.28;;;5.70;99.90;;;;;;5072042;28;20412;-64
2022/04/04 09:01:05;;;;;;;5.80;3.33;;;5.80;99.90;;;;;;5071376;28;20052;-64
2022/04/04 09:03:33;;;;;;;6.95;3.67;;;5.80;99.90;;;;;;5071005;28;20057;-64
2022/04/04 09:06:03;;;;;;;6.65;3.20;;;5.80;99.90;;;;;;5074571;28;20048;-65
2022/04/04 09:08:44;;;;;;;5.05;3.25;;;5.90;99.90;;;;;;5071427;28;20064;-64
2022/04/04 09:11:11;;;;;;;;;;;5.90;99.90;;;;;;5088919;28;20044;-64
2022/04/04 09:13:38;;;;;;;4.57;3.10;;;5.90;99.90;;;;;;5059019;28;19924;-64
2022/04/04 09:16:06;;;;;;;6.55;2.28;;;5.90;99.90;;;;;;5072238;28;20049;-64
2022/04/04 09:18:49;;;;;;;4.65;2.67;;;5.90;99.90;;;;;;5075451;28;20048;-64
2022/04/04 09:21:34;;;;;;;3.85;2.63;;;6.00;99.90;;;;;;5055808;28;20507;-65
2022/04/04 09:24:07;;;;;;;5.32;2.83;;;5.90;99.90;;;;;;5058288;28;20559;-64
2022/04/04 09:26:36;;;;;;;5.85;2.83;;;5.90;99.90;;;;;;5072247;28;20055;-65
2022/04/04 09:29:07;;;;;;;10.30;3.13;;;6.00;99.90;;;;;;5071152;28;20135;-64
2022/04/04 09:31:35;;;;;;;6.30;2.90;;;5.90;99.90;;;;;;5078282;28;20052;-64
2022/04/04 09:34:04;;;;;;;6.28;3.08;;;6.00;99.90;;;;;;5077200;28;20048;-64
2022/04/04 09:36:31;;;;;;;5.57;3.00;;;6.00;99.90;;;;;;5056946;28;20504;-64
2022/04/04 09:39:08;;;;;;;8.43;2.70;;;6.00;99.90;;;;;;5075298;28;20086;-64
2022/04/04 09:41:36;;;;;;;6.85;3.20;;;6.00;99.90;;;;;;5069309;28;20044;-64
2022/04/04 09:44:05;;;;;;;4.90;2.38;;;6.00;99.90;;;;;;5088488;28;20458;-65
2022/04/04 09:46:33;;;;;;;7.47;3.22;;;6.10;99.90;;;;;;5080897;28;20105;-64
2022/04/04 09:49:06;;;;;;;3.95;2.33;;;6.10;99.90;;;;;;5054438;28;20057;-65
2022/04/04 09:51:42;;;;;;;6.47;2.80;;;6.10;99.90;;;;;;5070726;28;20044;-65
2022/04/04 09:54:12;;;;;;;5.22;2.95;;;6.20;99.90;;;;;;5070830;28;20052;-64
2022/04/04 09:56:38;;;;;;;4.80;2.30;;;6.30;99.90;;;;;;5071157;28;20106;-65
2022/04/04 09:59:06;;;;;;;3.80;2.78;;;6.30;99.90;;;;;;5055619;28;20048;-65
2022/04/04 10:01:34;;;;;;;6.07;2.67;;;6.30;99.90;;;;;;5073054;28;20106;-64
2022/04/04 10:04:02;;;;;;;3.75;2.38;;;6.30;99.90;;;;;;5070787;28;20102;-64
2022/04/04 10:06:30;;;;;;;4.45;2.50;;;6.30;99.90;;;;;;5070607;28;20052;-65
2022/04/04 10:08:59;;;;;;;5.05;2.65;;;6.30;99.90;;;;;;5064847;28;20562;-65
2022/04/04 10:11:30;;;;;;;5.03;2.85;;;6.40;99.90;;;;;;5059047;28;20052;-64
2022/04/04 10:13:57;;;;;;;;;;;6.40;99.90;;;;;;5070760;28;20500;-65
2022/04/04 10:16:24;;;;;;;4.75;2.50;;;6.40;99.90;;;;;;5053079;28;19921;-65
2022/04/04 10:18:54;;;;;;;5.35;2.72;;;6.40;99.90;;;;;;5053642;28;20102;-65
2022/04/04 10:21:21;;;;;;;4.18;2.35;;;6.40;99.90;;;;;;5058342;28;20113;-65
2022/04/04 10:23:51;;;;;;;3.95;2.10;;;6.40;99.90;;;;;;5070828;28;20127;-64
2022/04/04 10:26:22;;;;;;;4.07;2.10;;;6.50;99.90;;;;;;5080612;28;20419;-64
2022/04/04 10:28:50;;;;;;;3.90;2.13;;;6.50;99.90;;;;;;5090510;28;20101;-64
2022/04/04 10:31:19;;;;;;;4.15;2.03;;;6.50;99.90;;;;;;5055938;28;20485;-65
2022/04/04 10:33:48;;;;;;;5.90;2.38;;;6.50;99.90;;;;;;5073677;28;20044;-64
2022/04/04 10:36:20;;;;;;;5.38;2.70;;;6.50;99.90;;;;;;5055048;28;20052;-64
2022/04/04 10:38:50;;;;;;;7.25;2.78;;;6.50;99.90;;;;;;5055470;28;20118;-64
2022/04/04 10:41:19;;;;;;;4.53;1.97;;;6.50;99.90;;;;;;5052576;28;20060;-64
2022/04/04 10:43:47;;;;;;;5.82;2.15;;;6.60;99.90;;;;;;5052737;28;20118;-64
2022/04/04 10:46:18;;;;;;;5.22;2.67;;;6.60;99.90;;;;;;5061095;28;20079;-64
2022/04/04 10:48:49;;;;;;;4.00;2.20;;;6.60;99.90;;;;;;5070882;28;20123;-65
2022/04/04 10:51:18;;;;;;;2.83;1.73;;;6.60;99.90;;;;;;5052503;28;20048;-64
2022/04/04 10:53:49;;;;;;;4.57;2.00;;;6.70;99.90;;;;;;5054251;28;20088;-65
2022/04/04 10:56:22;;;;;;;3.95;2.03;;;6.70;99.90;;;;;;5078213;28;20117;-64
2022/04/04 10:58:51;;;;;;;3.58;1.73;;;6.70;99.90;;;;;;5055759;28;20052;-65
2022/04/04 11:01:21;;;;;;;3.65;1.85;;;6.70;99.90;;;;;;5069550;28;20404;-64
2022/04/04 11:03:59;;;;;;;2.57;1.57;;;6.70;99.90;;;;;;5054064;28;20057;-64
2022/04/04 11:09:32;;;;;;;2.42;1.40;;;6.80;99.90;;;;;;5064279;28;20055;-64
2022/04/04 11:12:12;;;;;;;3.35;1.60;;;6.90;99.90;;;;;;5086827;28;20113;-66
2022/04/04 11:14:54;;;;;;;3.33;1.33;;;6.90;99.90;;;;;;5082895;28;20456;-65
2022/04/04 11:17:33;;;;;;;2.08;1.17;;;6.90;99.90;;;;;;5058740;28;20061;-65
2022/04/04 11:20:04;;;;;;;4.10;1.83;;;6.90;99.90;;;;;;5060166;28;20052;-65
2022/04/04 11:22:34;;;;;;;2.67;1.50;;;6.90;99.90;;;;;;5070794;28;20079;-65
2022/04/04 11:28:05;;;;;;;2.42;1.00;;;7.00;99.90;;;;;;5089971;28;20192;-65
2022/04/04 11:30:32;;;;;;;3.97;1.10;;;7.00;99.90;;;;;;5060797;28;20052;-65
2022/04/04 11:33:02;;;;;;;2.03;1.05;;;7.00;99.90;;;;;;5055498;28;20496;-67
2022/04/04 11:35:31;;;;;;;2.05;1.10;;;7.10;99.90;;;;;;5077944;28;20059;-65
2022/04/04 11:40:49;;;;;;;2.72;1.10;;;7.20;99.90;;;;;;5007242;28;20064;-65
2022/04/04 11:43:17;;;;;;;4.97;1.08;;;7.20;99.90;;;;;;4982157;28;20145;-65
2022/04/04 11:45:46;;;;;;;2.03;0.88;;;7.30;99.90;;;;;;4978856;28;20561;-65
2022/04/04 11:48:17;;;;;;;4.32;1.42;;;7.20;99.90;;;;;;5013811;28;20057;-64
2022/04/04 11:53:32;;;;;;;1.88;0.93;;;7.20;99.90;;;;;;5051221;28;20507;-65
2022/04/04 11:56:02;;;;;;;2.15;0.90;;;7.30;99.90;;;;;;5059759;28;20492;-65
2022/04/04 11:58:31;;;;;;;2.67;0.88;;;7.30;99.90;;;;;;5073628;28;20056;-65
2022/04/04 12:01:04;;;;;;;1.92;1.10;;;7.30;99.90;;;;;;5072873;28;20507;-65
2022/04/04 12:06:25;;;;;;;2.25;0.90;;;7.40;99.90;;;;;;5073192;28;20067;-66
2022/04/04 12:08:53;;;;;;;1.73;0.95;;;7.40;99.90;;;;;;5084632;28;20044;-67
2022/04/04 12:11:28;;;;;;;2.10;1.00;;;7.40;99.90;;;;;;5077033;28;20048;-66
2022/04/04 12:13:57;;;;;;;2.47;1.10;;;7.40;99.90;;;;;;5054731;28;20052;-66
2022/04/04 12:16:24;;;;;;;2.65;0.90;;;7.50;99.90;;;;;;5072388;28;20052;-65
2022/04/04 12:18:55;;;;;;;1.80;1.00;;;7.50;99.90;;;;;;5072874;28;20508;-65
2022/04/04 12:21:23;;;;;;;2.28;0.90;;;7.50;99.90;;;;;;5073358;28;20558;-65
2022/04/04 12:26:37;;;;;;;2.40;1.02;;;7.60;99.90;;;;;;5074850;28;20123;-65
2022/04/04 12:29:11;;;;;;;1.65;0.90;;;7.70;99.90;;;;;;5067112;28;20063;-65
2022/04/04 12:31:37;;;;;;;3.40;1.15;;;7.80;99.90;;;;;;5054688;28;20098;-65
2022/04/04 12:34:07;;;;;;;4.88;1.25;;;7.80;99.90;;;;;;5073916;28;20048;-65
2022/04/04 12:36:38;;;;;;;2.15;1.10;;;7.80;99.90;;;;;;5072899;28;20059;-64
2022/04/04 12:39:06;;;;;;;2.08;1.20;;;7.90;99.90;;;;;;5055954;28;20127;-65
2022/04/04 12:41:41;;;;;;;4.53;1.17;;;7.90;99.90;;;;;;5055865;28;20491;-64
2022/04/04 12:44:08;;;;;;;3.42;1.30;;;8.00;99.90;;;;;;5039854;28;20874;-64
2022/04/04 12:46:36;;;;;;;4.03;1.20;;;8.10;99.90;;;;;;5079522;28;20056;-65
2022/04/04 12:49:14;;;;;;;3.08;1.30;;;8.10;99.90;;;;;;5071330;28;20052;-65
2022/04/04 12:51:51;;;;;;;2.15;1.20;;;8.10;99.90;;;;;;5071713;28;20135;-65
2022/04/04 12:54:25;;;;;;;3.17;1.40;;;8.20;99.90;;;;;;5057145;28;20142;-65
2022/04/04 12:56:52;;;;;;;4.30;2.42;;;8.20;99.90;;;;;;5071868;28;20135;-65
2022/04/04 12:59:20;;;;;;;2.65;1.58;;;8.20;99.90;;;;;;5053552;28;20056;-65
2022/04/04 13:02:03;;;;;;;3.30;1.60;;;8.30;99.90;;;;;;5071105;28;20147;-65
2022/04/04 13:04:32;;;;;;;4.45;1.83;;;8.30;99.90;;;;;;5091510;28;20479;-65
2022/04/04 13:07:00;;;;;;;4.68;1.90;;;8.30;99.90;;;;;;5084600;28;20063;-65
2022/04/04 13:09:29;;;;;;;4.60;2.20;;;8.40;99.90;;;;;;5073524;28;20052;-65
2022/04/04 13:11:57;;;;;;;3.25;1.77;;;8.40;99.90;;;;;;5068506;28;20109;-65
2022/04/04 13:14:25;;;;;;;2.80;1.70;;;8.40;99.90;;;;;;5070992;28;20056;-65
2022/04/04 13:16:54;;;;;;;4.97;2.10;;;8.50;99.90;;;;;;5077891;28;20397;-65